createdAt,value
2019-03-12T00:02:24.786Z,13.03
2019-03-12T00:04:53.176Z,16.80
2019-03-12T00:07:21.555Z,11.17
2019-03-12T00:09:49.935Z,1.30
2019-03-12T00:12:18.312Z,9.27
2019-03-12T00:14:46.689Z,9.57
2019-03-12T00:17:15.075Z,10.50
2019-03-12T00:19:43.457Z,9.60
2019-03-12T00:22:11.828Z,10.43
2019-03-12T00:24:40.212Z,9.17
2019-03-12T00:27:08.656Z,17.33
2019-03-12T00:29:37.039Z,6.63
2019-03-12T00:32:05.415Z,6.30
2019-03-12T00:34:33.799Z,3.37
2019-03-12T00:37:02.172Z,4.43
2019-03-12T00:39:30.555Z,4.53
2019-03-12T00:41:58.937Z,6.10
2019-03-12T00:44:27.313Z,9.70
2019-03-12T00:46:55.681Z,5.57
2019-03-12T00:49:24.136Z,5.07
2019-03-12T00:51:52.512Z,6.77
2019-03-12T00:54:20.880Z,2.03
2019-03-12T00:56:49.288Z,13.23
2019-03-12T00:59:17.648Z,10.90
2019-03-12T01:01:46.034Z,10.23
2019-03-12T01:04:14.419Z,3.67
2019-03-12T01:06:42.788Z,3.47
2019-03-12T01:09:11.202Z,7.37
2019-03-12T01:11:39.624Z,2.63
2019-03-12T01:14:08.001Z,7.80
2019-03-12T01:16:36.384Z,5.00
2019-03-12T01:19:04.759Z,4.60
2019-03-12T01:21:33.123Z,7.00
2019-03-12T01:24:01.514Z,15.90
2019-03-12T01:26:29.879Z,7.93
2019-03-12T01:28:58.270Z,15.43
2019-03-12T01:31:26.649Z,9.43
2019-03-12T01:33:55.036Z,16.37
2019-03-12T01:36:23.408Z,17.70
2019-03-12T01:38:51.791Z,14.73
2019-03-12T01:41:20.164Z,10.93
2019-03-12T01:43:48.543Z,8.33
2019-03-12T01:46:16.920Z,13.63
2019-03-12T01:48:45.297Z,20.73
2019-03-12T01:51:13.706Z,19.80
2019-03-12T01:53:42.061Z,14.40
2019-03-12T01:56:10.460Z,17.83
2019-03-12T01:58:38.831Z,11.27
2019-03-12T02:01:07.212Z,12.70
2019-03-12T02:03:35.602Z,17.33
2019-03-12T02:06:04.100Z,9.70
2019-03-12T02:08:32.471Z,17.13
2019-03-12T02:11:00.851Z,9.70
2019-03-12T02:13:29.232Z,10.90
2019-03-12T02:15:57.608Z,11.07
2019-03-12T02:18:25.993Z,10.17
2019-03-12T02:20:54.374Z,12.43
2019-03-12T02:23:22.768Z,13.00
2019-03-12T02:25:51.151Z,15.57
2019-03-12T02:28:19.545Z,9.83
2019-03-12T02:30:47.925Z,7.53
2019-03-12T02:33:16.316Z,14.50
2019-03-12T02:35:44.700Z,13.73
2019-03-12T02:38:13.069Z,5.93
2019-03-12T02:40:41.455Z,10.20
2019-03-12T02:43:29.174Z,4.30
2019-03-12T02:45:57.555Z,5.50
2019-03-12T02:48:25.931Z,15.30
2019-03-12T02:50:54.314Z,10.37
2019-03-12T02:53:22.688Z,18.03
2019-03-12T02:55:51.072Z,5.47
2019-03-12T02:58:19.447Z,8.40
2019-03-12T03:00:47.828Z,9.90
2019-03-12T03:03:16.196Z,4.83
2019-03-12T03:05:55.020Z,9.30
2019-03-12T03:08:25.057Z,16.53
2019-03-12T03:10:53.436Z,17.67
2019-03-12T03:13:21.801Z,8.97
2019-03-12T03:15:50.189Z,13.27
2019-03-12T03:18:18.583Z,16.97
2019-03-12T03:20:46.959Z,19.67
2019-03-12T03:23:15.404Z,13.67
2019-03-12T03:25:43.794Z,18.40
2019-03-12T03:28:12.166Z,23.43
2019-03-12T03:30:40.621Z,12.40
2019-03-12T03:33:09.030Z,11.63
2019-03-12T03:35:37.455Z,19.53
2019-03-12T03:38:05.852Z,18.50
2019-03-12T03:40:34.229Z,20.33
2019-03-12T03:43:02.607Z,22.90
2019-03-12T03:45:31.001Z,26.43
2019-03-12T03:47:59.598Z,17.90
2019-03-12T03:50:27.989Z,14.50
2019-03-12T03:52:56.367Z,11.53
2019-03-12T03:55:24.748Z,19.93
2019-03-12T03:57:53.127Z,32.80
2019-03-12T04:00:23.801Z,23.17
2019-03-12T04:02:52.177Z,8.63
2019-03-12T04:05:20.779Z,18.13
2019-03-12T04:07:49.175Z,15.23
2019-03-12T04:10:17.681Z,25.40
2019-03-12T04:12:46.049Z,24.13
2019-03-12T04:15:18.354Z,25.27
2019-03-12T04:17:46.880Z,17.43
2019-03-12T04:20:17.363Z,36.50
2019-03-12T04:22:45.743Z,27.00
2019-03-12T04:25:14.185Z,15.57
2019-03-12T04:27:42.564Z,19.90
2019-03-12T04:30:13.948Z,17.13
2019-03-12T04:32:42.353Z,23.43
2019-03-12T04:35:19.623Z,23.03
2019-03-12T04:37:48.019Z,19.50
2019-03-12T04:40:16.388Z,20.33
2019-03-12T04:42:44.772Z,17.47
2019-03-12T04:45:15.564Z,16.80
2019-03-12T04:47:43.939Z,22.47
2019-03-12T04:50:12.771Z,19.57
2019-03-12T04:52:41.151Z,15.77
2019-03-12T04:55:12.071Z,18.87
2019-03-12T04:57:40.445Z,23.07
2019-03-12T05:00:14.811Z,14.70
2019-03-12T05:02:43.188Z,16.37
2019-03-12T05:05:11.708Z,19.70
2019-03-12T05:07:40.091Z,20.27
2019-03-12T05:10:27.804Z,19.43
2019-03-12T05:12:56.195Z,20.17
2019-03-12T05:15:24.571Z,24.27
2019-03-12T05:17:52.948Z,22.90
2019-03-12T05:20:21.338Z,9.67
2019-03-12T05:22:49.711Z,20.57
2019-03-12T05:25:18.095Z,17.37
2019-03-12T05:27:46.483Z,17.90
2019-03-12T05:30:17.571Z,22.17
2019-03-12T05:32:45.946Z,16.80
2019-03-12T05:35:33.668Z,25.50
2019-03-12T05:38:22.808Z,17.90
2019-03-12T05:40:51.200Z,18.40
2019-03-12T05:43:19.572Z,14.07
2019-03-12T05:45:47.948Z,19.33
2019-03-12T05:48:16.335Z,13.73
2019-03-12T05:50:44.711Z,21.87
2019-03-12T05:53:14.942Z,18.50
2019-03-12T05:55:43.439Z,22.23
2019-03-12T05:58:11.840Z,25.13
2019-03-12T06:00:40.223Z,26.80
2019-03-12T06:03:08.613Z,10.90
2019-03-12T06:05:36.984Z,20.13
2019-03-12T06:08:05.356Z,16.77
2019-03-12T06:10:33.748Z,15.27
2019-03-12T06:13:02.128Z,11.47
2019-03-12T06:15:30.513Z,15.20
2019-03-12T06:17:58.893Z,14.80
2019-03-12T06:20:27.279Z,14.90
2019-03-12T06:22:55.660Z,10.37
2019-03-12T06:25:24.166Z,21.27
2019-03-12T06:27:52.595Z,13.83
2019-03-12T06:30:21.213Z,6.97
2019-03-12T06:33:00.425Z,11.50
2019-03-12T06:35:33.443Z,10.60
2019-03-12T06:38:03.453Z,8.97
2019-03-12T06:40:49.694Z,13.13
2019-03-12T06:43:28.995Z,13.97
2019-03-12T06:46:11.163Z,10.20
2019-03-12T06:48:43.912Z,9.67
2019-03-12T06:51:13.975Z,16.93
2019-03-12T06:53:44.001Z,17.70
2019-03-12T06:56:22.848Z,15.93
2019-03-12T06:58:52.880Z,18.77
2019-03-12T07:01:40.902Z,15.27
2019-03-12T07:04:10.932Z,11.43
2019-03-12T07:06:43.345Z,5.30
2019-03-12T07:09:13.376Z,7.83
2019-03-12T07:11:46.302Z,11.47
2019-03-12T07:14:25.303Z,12.37
2019-03-12T07:16:55.298Z,5.30
2019-03-12T07:19:30.782Z,3.93
2019-03-12T07:22:09.976Z,7.90
2019-03-12T07:24:42.672Z,14.77
2019-03-12T07:27:12.694Z,10.73
2019-03-12T07:29:59.036Z,13.93
2019-03-12T07:32:44.319Z,10.67
2019-03-12T07:35:14.417Z,13.63
2019-03-12T07:37:53.723Z,8.90
2019-03-12T07:40:32.801Z,11.67
2019-03-12T07:43:19.153Z,2.57
2019-03-12T07:45:52.306Z,11.87
2019-03-12T07:48:25.027Z,9.30
2019-03-12T07:50:57.988Z,8.10
2019-03-12T07:53:28.007Z,10.10
2019-03-12T07:56:01.111Z,5.00
2019-03-12T07:58:35.764Z,5.00
2019-03-12T08:01:05.550Z,7.00
2019-03-12T08:03:51.601Z,7.87
2019-03-12T08:06:36.780Z,11.23
2019-03-12T08:09:14.233Z,10.97
2019-03-12T08:11:50.217Z,7.80
2019-03-12T08:14:20.235Z,12.03
2019-03-12T08:16:50.267Z,7.67
2019-03-12T08:19:20.291Z,6.73
2019-03-12T08:21:59.119Z,3.03
2019-03-12T08:24:29.148Z,8.20
2019-03-12T08:26:59.164Z,7.83
2019-03-12T08:29:31.863Z,10.97
2019-03-12T08:32:04.567Z,14.40
2019-03-12T08:34:40.591Z,8.00
2019-03-12T08:37:10.599Z,7.93
2019-03-12T08:39:46.464Z,6.87
2019-03-12T08:42:32.975Z,7.60
2019-03-12T08:45:11.307Z,6.33
2019-03-12T08:47:40.683Z,7.47
2019-03-12T08:50:11.644Z,10.43
2019-03-12T08:52:53.619Z,11.93
2019-03-12T08:55:26.640Z,14.20
2019-03-12T08:58:11.644Z,6.87
2019-03-12T09:00:53.740Z,8.73
2019-03-12T09:03:26.511Z,8.27
2019-03-12T09:05:56.521Z,12.10
2019-03-12T09:08:41.884Z,8.77
2019-03-12T09:11:14.844Z,14.73
2019-03-12T09:13:44.875Z,5.70
2019-03-12T09:16:14.896Z,7.43
2019-03-12T09:18:44.947Z,15.30
2019-03-12T09:21:15.035Z,11.87
2019-03-12T09:23:47.909Z,13.40
2019-03-12T09:26:30.203Z,10.40
2019-03-12T09:29:09.236Z,12.40
2019-03-12T09:31:39.268Z,8.50
2019-03-12T09:34:09.280Z,8.43
2019-03-12T09:36:48.216Z,12.40
2019-03-12T09:39:36.400Z,13.27
2019-03-12T09:42:15.612Z,9.40
2019-03-12T09:44:48.600Z,11.57
2019-03-12T09:47:21.552Z,14.17
2019-03-12T09:49:57.544Z,8.53
2019-03-12T09:52:30.489Z,7.63
2019-03-12T09:55:16.562Z,7.40
2019-03-12T09:57:55.700Z,8.67
2019-03-12T10:00:25.736Z,12.63
2019-03-12T10:03:12.300Z,5.00
2019-03-12T10:05:58.920Z,4.37
2019-03-12T10:08:28.943Z,6.70
2019-03-12T10:11:01.723Z,11.10
2019-03-12T10:13:48.029Z,10.57
2019-03-12T10:16:36.331Z,8.53
2019-03-12T10:19:09.067Z,8.97
2019-03-12T10:21:41.801Z,10.27
2019-03-12T10:24:23.630Z,28.63
2019-03-12T10:26:56.590Z,14.07
2019-03-12T10:29:41.324Z,6.90
2019-03-12T10:32:11.336Z,12.30
2019-03-12T10:34:43.799Z,4.43
2019-03-12T10:37:16.420Z,8.00
2019-03-12T10:40:12.784Z,8.63
2019-03-12T10:43:04.889Z,6.30
2019-03-12T10:45:34.927Z,11.90
2019-03-12T10:48:04.536Z,3.67
2019-03-12T10:50:33.060Z,5.73
2019-03-12T10:53:01.610Z,8.80
2019-03-12T10:55:29.993Z,6.47
2019-03-12T10:57:58.372Z,6.63
2019-03-12T11:00:26.756Z,5.53
2019-03-12T11:02:55.149Z,11.90
2019-03-12T11:05:23.597Z,11.60
2019-03-12T11:07:51.983Z,11.97
2019-03-12T11:10:20.496Z,9.53
2019-03-12T11:12:49.095Z,4.77
2019-03-12T11:15:17.612Z,12.50
2019-03-12T11:17:50.068Z,5.30
2019-03-12T11:20:23.943Z,18.30
2019-03-12T11:22:52.380Z,10.80
2019-03-12T11:25:27.174Z,6.30
2019-03-12T11:27:50.944Z,14.63
2019-03-12T11:30:20.154Z,8.70
2019-03-12T11:32:48.541Z,8.87
2019-03-12T11:35:16.914Z,11.07
2019-03-12T11:37:45.326Z,10.20
2019-03-12T11:40:16.588Z,17.10
2019-03-12T11:42:45.213Z,9.07
2019-03-12T11:45:17.966Z,15.23
2019-03-12T11:47:44.296Z,12.57
2019-03-12T11:50:15.326Z,11.43
2019-03-12T11:52:52.053Z,2.87
2019-03-12T11:55:15.269Z,7.43
2019-03-12T11:57:43.729Z,12.33
2019-03-12T12:00:20.514Z,2.47
2019-03-12T12:02:59.373Z,6.20
2019-03-12T12:05:19.037Z,7.07
2019-03-12T12:07:47.417Z,5.97
2019-03-12T12:10:17.953Z,14.77
2019-03-12T12:12:46.408Z,18.77
2019-03-12T12:15:16.035Z,13.83
2019-03-12T12:17:44.436Z,3.43
2019-03-12T12:20:14.155Z,5.73
2019-03-12T12:22:42.616Z,15.23
2019-03-12T12:25:16.109Z,18.03
2019-03-12T12:27:44.495Z,5.90
2019-03-12T12:30:23.758Z,9.57
2019-03-12T12:32:52.145Z,5.13
2019-03-12T12:35:20.520Z,8.97
2019-03-12T12:37:48.896Z,6.60
2019-03-12T12:40:20.352Z,5.27
2019-03-12T12:42:48.736Z,6.63
2019-03-12T12:45:26.199Z,3.93
2019-03-12T12:47:54.563Z,5.30
2019-03-12T12:50:22.943Z,4.23
2019-03-12T12:52:51.331Z,3.77
2019-03-12T12:55:19.775Z,4.47
2019-03-12T12:57:48.163Z,7.90
2019-03-12T13:00:18.985Z,3.10
2019-03-12T13:02:47.450Z,2.47
2019-03-12T13:05:15.834Z,7.47
2019-03-12T13:07:44.196Z,3.27
2019-03-12T13:10:21.284Z,4.90
2019-03-12T13:12:49.664Z,2.43
2019-03-12T13:15:18.039Z,7.43
2019-03-12T13:17:46.429Z,1.93
2019-03-12T13:20:14.884Z,4.70
2019-03-12T13:22:43.339Z,5.87
2019-03-12T13:25:16.637Z,3.70
2019-03-12T13:27:45.091Z,8.93
2019-03-12T13:30:21.356Z,4.37
2019-03-12T13:32:49.737Z,5.47
2019-03-12T13:35:18.661Z,5.10
2019-03-12T13:37:47.692Z,4.67
2019-03-12T13:40:20.879Z,3.07
2019-03-12T13:42:49.367Z,8.27
2019-03-12T13:45:22.729Z,4.03
2019-03-12T13:47:51.258Z,19.57
2019-03-12T13:50:20.021Z,3.87
2019-03-12T13:52:48.546Z,3.40
2019-03-12T13:55:17.239Z,8.97
2019-03-12T13:57:45.788Z,15.47
2019-03-12T14:00:19.188Z,36.47
2019-03-12T14:02:47.640Z,4.50
2019-03-12T14:05:16.255Z,11.27
2019-03-12T14:07:44.804Z,16.93
2019-03-12T14:10:20.792Z,4.43
2019-03-12T14:12:49.804Z,5.77
2019-03-12T14:15:27.093Z,3.63
2019-03-12T14:17:55.535Z,3.93
2019-03-12T14:20:41.426Z,4.27
2019-03-12T14:23:31.295Z,6.20
2019-03-12T14:25:59.754Z,10.10
2019-03-12T14:28:28.123Z,3.00
2019-03-12T14:30:56.659Z,5.37
2019-03-12T14:33:25.107Z,4.03
2019-03-12T14:35:53.557Z,2.80
2019-03-12T14:38:21.930Z,3.23
2019-03-12T14:40:50.393Z,5.73
2019-03-12T14:43:18.762Z,4.53
2019-03-12T14:45:51.716Z,4.63
2019-03-12T14:48:47.300Z,4.67
2019-03-12T14:51:24.341Z,2.73
2019-03-12T14:54:01.009Z,5.97
2019-03-12T14:56:30.716Z,9.73
2019-03-12T14:58:59.244Z,0.70
2019-03-12T15:01:27.620Z,3.43
2019-03-12T15:03:56.000Z,5.30
2019-03-12T15:06:24.391Z,4.80
2019-03-12T15:08:52.768Z,4.77
2019-03-12T15:11:21.144Z,3.17
2019-03-12T15:13:49.536Z,6.03
2019-03-12T15:16:17.912Z,7.43
2019-03-12T15:18:46.287Z,4.97
2019-03-12T15:21:14.669Z,9.93
2019-03-12T15:23:43.044Z,2.30
2019-03-12T15:26:11.433Z,4.93
2019-03-12T15:28:39.805Z,5.33
2019-03-12T15:31:08.197Z,3.20
2019-03-12T15:33:36.572Z,2.33
2019-03-12T15:36:05.020Z,1.90
2019-03-12T15:38:33.406Z,3.80
2019-03-12T15:41:01.784Z,3.47
2019-03-12T15:43:30.164Z,3.43
2019-03-12T15:45:58.615Z,4.13
2019-03-12T15:48:26.992Z,1.43
2019-03-12T15:50:55.385Z,1.77
2019-03-12T15:53:23.759Z,1.43
2019-03-12T15:55:52.140Z,1.17
2019-03-12T15:58:20.525Z,0.47
2019-03-12T16:00:48.907Z,10.83
2019-03-12T16:03:17.347Z,4.43
2019-03-12T16:05:45.766Z,3.97
2019-03-12T16:08:14.143Z,4.23
2019-03-12T16:10:42.525Z,2.33
2019-03-12T16:13:10.910Z,1.10
2019-03-12T16:15:39.300Z,5.87
2019-03-12T16:18:07.672Z,5.30
2019-03-12T16:20:36.073Z,6.63
2019-03-12T16:23:04.443Z,5.27
2019-03-12T16:25:32.828Z,5.67
2019-03-12T16:28:01.209Z,6.30
2019-03-12T16:30:29.590Z,3.20
2019-03-12T16:32:57.967Z,2.57
2019-03-12T16:35:26.343Z,11.10
2019-03-12T16:37:54.736Z,2.33
2019-03-12T16:40:23.111Z,4.33
2019-03-12T16:42:51.499Z,5.43
2019-03-12T16:45:20.922Z,6.60
2019-03-12T16:47:49.299Z,3.47
2019-03-12T16:50:18.328Z,4.00
2019-03-12T16:52:46.703Z,6.33
2019-03-12T16:55:19.315Z,3.10
2019-03-12T16:57:47.704Z,4.23
2019-03-12T17:00:19.872Z,5.53
2019-03-12T17:02:48.293Z,1.47
2019-03-12T17:05:16.725Z,7.83
2019-03-12T17:07:45.093Z,3.03
2019-03-12T17:10:20.447Z,4.07
2019-03-12T17:12:48.892Z,4.67
2019-03-12T17:15:25.451Z,3.83
2019-03-12T17:17:53.836Z,2.07
2019-03-12T17:20:22.207Z,7.07
2019-03-12T17:22:50.588Z,4.90
2019-03-12T17:25:18.973Z,2.57
2019-03-12T17:27:47.344Z,4.70
2019-03-12T17:30:20.499Z,2.03
2019-03-12T17:32:48.876Z,1.60
2019-03-12T17:35:37.360Z,2.47
2019-03-12T17:38:05.736Z,23.97
2019-03-12T17:40:34.112Z,5.13
2019-03-12T17:43:02.495Z,2.33
2019-03-12T17:45:30.860Z,3.80
2019-03-12T17:47:59.248Z,6.27
2019-03-12T17:50:27.624Z,6.70
2019-03-12T17:52:56.073Z,2.20
2019-03-12T17:55:24.475Z,6.60
2019-03-12T17:57:52.861Z,1.17
2019-03-12T18:00:33.815Z,2.20
2019-03-12T18:03:02.190Z,3.67
2019-03-12T18:05:30.564Z,1.93
2019-03-12T18:07:58.950Z,4.57
2019-03-12T18:10:27.436Z,5.00
2019-03-12T18:12:55.780Z,6.53
2019-03-12T18:15:24.169Z,7.30
2019-03-12T18:17:52.552Z,3.87
2019-03-12T18:20:23.047Z,8.80
2019-03-12T18:22:51.796Z,4.37
2019-03-12T18:25:35.201Z,4.03
2019-03-12T18:28:03.846Z,4.07
2019-03-12T18:30:32.296Z,7.17
2019-03-12T18:33:00.696Z,3.20
2019-03-12T18:35:29.148Z,2.73
2019-03-12T18:37:57.544Z,5.30
2019-03-12T18:40:27.190Z,7.00
2019-03-12T18:42:55.607Z,4.97
2019-03-12T18:45:25.232Z,7.20
2019-03-12T18:47:53.615Z,4.33
2019-03-12T18:50:22.071Z,3.60
2019-03-12T18:52:50.456Z,3.90
2019-03-12T18:55:24.828Z,2.77
2019-03-12T18:57:53.219Z,5.93
2019-03-12T19:00:21.595Z,3.97
2019-03-12T19:02:49.964Z,2.63
2019-03-12T19:05:18.349Z,3.73
2019-03-12T19:07:46.720Z,3.33
2019-03-12T19:10:17.061Z,1.37
2019-03-12T19:12:45.280Z,1.60
2019-03-12T19:15:14.787Z,6.83
2019-03-12T19:17:43.313Z,3.80
2019-03-12T19:20:15.753Z,3.07
2019-03-12T19:22:44.111Z,1.57
2019-03-12T19:25:17.891Z,5.93
2019-03-12T19:27:58.892Z,2.10
2019-03-12T19:30:18.503Z,2.67
2019-03-12T19:32:51.316Z,2.43
2019-03-12T19:35:21.949Z,3.20
2019-03-12T19:37:50.315Z,1.97
2019-03-12T19:40:21.401Z,3.30
2019-03-12T19:42:49.852Z,5.03
2019-03-12T19:45:18.229Z,5.70
2019-03-12T19:47:46.611Z,8.47
2019-03-12T19:50:19.896Z,2.17
2019-03-12T19:52:48.280Z,4.27
2019-03-12T19:55:22.291Z,2.83
2019-03-12T19:57:51.628Z,1.93
2019-03-12T20:00:21.051Z,7.73
2019-03-12T20:02:49.597Z,8.80
2019-03-12T20:05:18.043Z,7.53
2019-03-12T20:07:46.418Z,2.73
2019-03-12T20:10:29.856Z,3.33
2019-03-12T20:13:30.161Z,1.93
2019-03-12T20:16:30.556Z,5.60
2019-03-12T20:19:35.123Z,2.70
2019-03-12T20:22:24.591Z,7.53
2019-03-12T20:25:12.488Z,6.43
2019-03-12T20:28:15.634Z,4.73
2019-03-12T20:31:08.335Z,4.97
2019-03-12T20:33:51.677Z,6.43
2019-03-12T20:36:51.728Z,4.93
2019-03-12T20:39:39.392Z,7.53
2019-03-12T20:42:22.419Z,2.17
2019-03-12T20:45:16.571Z,4.50
2019-03-12T20:48:02.576Z,0.90
2019-03-12T20:50:50.814Z,1.67
2019-03-12T20:53:40.483Z,0.50
2019-03-12T20:56:28.536Z,1.43
2019-03-12T20:59:22.563Z,0.50
2019-03-12T21:02:27.791Z,0.77
2019-03-12T21:05:14.267Z,2.90
2019-03-12T21:07:57.096Z,1.47
2019-03-12T21:10:37.339Z,2.83
2019-03-12T21:13:30.116Z,2.33
2019-03-12T21:16:35.116Z,2.57
2019-03-12T21:19:35.288Z,3.30
2019-03-12T21:22:09.601Z,3.57
2019-03-12T21:24:41.055Z,4.63
2019-03-12T21:27:18.292Z,3.30
2019-03-12T21:29:46.859Z,4.07
2019-03-12T21:32:16.772Z,4.10
2019-03-12T21:34:45.168Z,3.00
2019-03-12T21:37:14.480Z,4.90
2019-03-12T21:39:54.614Z,2.70
2019-03-12T21:42:13.088Z,3.43
2019-03-12T21:44:41.527Z,3.00
2019-03-12T21:47:09.977Z,2.33
2019-03-12T21:49:38.366Z,3.30
2019-03-12T21:52:07.352Z,4.97
2019-03-12T21:54:35.809Z,4.30
2019-03-12T21:57:04.270Z,4.90
2019-03-12T21:59:32.640Z,9.43
2019-03-12T22:02:01.012Z,8.03
2019-03-12T22:04:29.392Z,7.47
2019-03-12T22:06:57.759Z,6.70
2019-03-12T22:09:26.131Z,4.47
2019-03-12T22:11:54.516Z,5.27
2019-03-12T22:14:22.892Z,6.20
2019-03-12T22:16:52.754Z,5.63
2019-03-12T22:19:21.124Z,4.27
2019-03-12T22:21:51.164Z,7.60
2019-03-12T22:24:20.610Z,5.80
2019-03-12T22:26:48.975Z,4.27
2019-03-12T22:29:18.208Z,3.33
2019-03-12T22:31:46.577Z,5.13
2019-03-12T22:34:14.959Z,7.07
2019-03-12T22:36:43.332Z,6.33
2019-03-12T22:39:11.707Z,7.73
2019-03-12T22:41:40.092Z,7.47
2019-03-12T22:44:08.467Z,10.23
2019-03-12T22:46:36.851Z,8.33
2019-03-12T22:49:05.228Z,7.13
2019-03-12T22:51:33.611Z,7.53
2019-03-12T22:54:01.992Z,5.53
2019-03-12T22:56:30.368Z,7.67
2019-03-12T22:58:58.751Z,6.53
2019-03-12T23:01:27.135Z,7.00
2019-03-12T23:03:55.503Z,9.27
2019-03-12T23:06:23.871Z,5.23
2019-03-12T23:08:52.325Z,8.60
2019-03-12T23:11:20.687Z,7.27
2019-03-12T23:13:49.063Z,6.27
2019-03-12T23:16:17.452Z,3.90
2019-03-12T23:18:45.896Z,5.10
2019-03-12T23:21:14.272Z,3.23
2019-03-12T23:23:42.727Z,3.27
2019-03-12T23:26:11.115Z,2.67
2019-03-12T23:28:39.499Z,2.50
2019-03-12T23:31:07.876Z,4.43
2019-03-12T23:33:36.248Z,3.53
2019-03-12T23:36:04.618Z,4.03
2019-03-12T23:38:32.999Z,1.80
2019-03-12T23:41:01.376Z,2.97
2019-03-12T23:43:29.844Z,1.50
2019-03-12T23:45:58.212Z,1.33
2019-03-12T23:48:26.585Z,4.40
2019-03-12T23:50:54.963Z,1.50
2019-03-12T23:53:23.336Z,1.07
2019-03-12T23:55:51.951Z,1.57
2019-03-12T23:58:20.555Z,1.23
